Terminal Aerodrome Forecast
Issued by NWS

Home | Current Version | Previous Version | Text Only | Print | Product List | Glossary On
Versions: 1 2 3 4 5 6 7 8 9 10 11 12 13 14 15 16 17 18 19 20 21 22 23 24 25 26 27 28 29
000
FTUS45 KTWC 042334
TAFOLS
TAF
KOLS 042334Z 0500/0524 23014G24KT P6SM SCT080
     FM050200 23008KT P6SM SCT080
     FM050600 VRB03KT P6SM FEW080
     FM051700 20010KT P6SM SCT080
     FM052000 23012G20KT P6SM SCT080=

USA.gov is the U.S. government's official web portal to all federal, state and local government web resources and services.